Athens, West Virginia
Current Conditions -  °F | °C
As of 1:52 AM on Wednesday 22 Oct 2014 (Local Time) from KBLF Reporting Station
Light Rain Light Rain  
Wind Chill: 43°   Ceiling: 600
Heat Index: 43°   Visibility: 6mi
Dew Point: 39°   Wind: 3mph
Humidity: 86%   Direction: NA
Pressure: 30.04"   Gusts: NA
Location:  37.42°N, 81.02°W
Report Text: KBLF 220552Z AUTO VRB03KT 6SM -RA BR BKN006 OVC010 06/04 A3004 RMK AO2 CIG 004V008 SLP165 P0001 60002 T00610039 10072 20061 58002
Loading
Personal Weather Stations






























Interactive Weather Map
Tropical Storm Tracking
New forecast layout! Learn more

10-Day Weather Forecast

Advertisements
Track Severe Weather on mobile